Time;durP1;ratioP1;P1;durP2;ratioP2;P2;SDS_P1;SDS_P2;PMS_P1;PMS_P2;Temp;Humidity;BMP_temperature;BMP_pressure;BME280_temperature;BME280_humidity;BME280_pressure;Samples;Min_cycle;Max_cycle;Signal;HPM_P1;HPM_P2
2021/08/12 00:02:25;;;;;;;6.18;5.47;;;;;;;;;;4896436;29;20219;-66
2021/08/12 00:04:52;;;;;;;5.90;5.30;;;;;;;;;;4896472;29;20056;-65
2021/08/12 00:07:20;;;;;;;7.13;5.53;;;;;;;;;;4896781;29;20086;-65
2021/08/12 00:09:47;;;;;;;6.63;5.68;;;;;;;;;;4896436;29;20084;-65
2021/08/12 00:12:14;;;;;;;8.50;5.65;;;;;;;;;;4896494;29;20084;-65
2021/08/12 00:14:40;;;;;;;9.07;6.57;;;;;;;;;;4896472;29;20061;-65
2021/08/12 00:17:07;;;;;;;8.52;6.22;;;;;;;;;;4900313;29;20056;-65
2021/08/12 00:19:34;;;;;;;8.50;6.85;;;;;;;;;;4900395;29;20481;-65
2021/08/12 00:22:00;;;;;;;9.90;6.07;;;;;;;;;;4900121;29;20052;-65
2021/08/12 00:24:27;;;;;;;7.65;6.15;;;;;;;;;;4900501;29;20084;-65
2021/08/12 00:26:54;;;;;;;8.18;6.20;;;;;;;;;;4918900;29;20138;-65
2021/08/12 00:29:21;;;;;;;8.40;6.30;;;;;;;;;;4905971;29;20048;-66
2021/08/12 00:31:49;;;;;;;7.88;6.15;;;;;;;;;;4900492;29;20238;-65
2021/08/12 00:34:16;;;;;;;7.32;6.35;;;;;;;;;;4900070;29;20121;-65
2021/08/12 00:36:42;;;;;;;8.32;6.43;;;;;;;;;;4900044;29;20128;-65
2021/08/12 00:39:10;;;;;;;8.75;6.85;;;;;;;;;;4899433;29;20107;-65
2021/08/12 00:41:40;;;;;;;7.57;6.65;;;;;;;;;;4902222;29;20095;-65
2021/08/12 00:44:07;;;;;;;7.75;6.97;;;;;;;;;;4918862;29;20135;-65
2021/08/12 00:46:33;;;;;;;7.10;6.10;;;;;;;;;;4900488;29;20115;-65
2021/08/12 00:49:00;;;;;;;6.20;5.60;;;;;;;;;;4917618;29;20066;-65
2021/08/12 00:51:27;;;;;;;8.20;6.28;;;;;;;;;;4918946;29;20079;-65
2021/08/12 00:53:54;;;;;;;8.63;6.13;;;;;;;;;;4918647;29;20087;-65
2021/08/12 00:56:20;;;;;;;10.57;7.50;;;;;;;;;;4902256;29;20139;-65
2021/08/12 00:58:47;;;;;;;7.18;6.38;;;;;;;;;;4903269;29;20084;-65
2021/08/12 01:01:13;;;;;;;6.80;5.95;;;;;;;;;;4902798;29;20084;-65
2021/08/12 01:03:40;;;;;;;8.95;6.75;;;;;;;;;;4899438;29;20084;-65
2021/08/12 01:06:07;;;;;;;9.05;6.55;;;;;;;;;;4899581;29;20116;-66
2021/08/12 01:08:54;;;;;;;9.75;6.57;;;;;;;;;;4909895;29;20083;-65
2021/08/12 02:07:59;;;;;;;7.38;5.95;;;;;;;;;;4880104;29;20048;-69
2021/08/12 02:10:26;;;;;;;9.23;5.80;;;;;;;;;;4879919;29;20120;-68
2021/08/12 02:12:52;;;;;;;7.72;6.30;;;;;;;;;;4879594;29;20535;-68
2021/08/12 02:15:20;;;;;;;7.55;5.60;;;;;;;;;;4879649;29;20595;-69
2021/08/12 02:17:46;;;;;;;7.18;6.03;;;;;;;;;;4879711;29;20650;-68
2021/08/12 02:20:14;;;;;;;7.03;6.28;;;;;;;;;;4879554;29;20091;-69
2021/08/12 02:22:47;;;;;;;7.97;6.25;;;;;;;;;;4863293;29;20081;-69
2021/08/12 02:25:36;;;;;;;7.28;6.57;;;;;;;;;;4878447;29;20448;-68
2021/08/12 02:28:05;;;;;;;9.02;6.00;;;;;;;;;;4878825;29;20132;-69
2021/08/12 02:30:34;;;;;;;7.97;6.55;;;;;;;;;;4863222;29;20084;-69
2021/08/12 02:33:01;;;;;;;7.55;6.13;;;;;;;;;;4879330;29;20095;-69
2021/08/12 02:35:27;;;;;;;7.28;6.57;;;;;;;;;;4862885;29;20092;-68
2021/08/12 02:37:54;;;;;;;8.30;6.63;;;;;;;;;;4877075;29;20085;-69
2021/08/12 02:40:21;;;;;;;7.68;6.30;;;;;;;;;;4863035;29;20085;-69
2021/08/12 02:42:47;;;;;;;7.57;6.60;;;;;;;;;;4862723;29;20099;-69
2021/08/12 02:45:14;;;;;;;8.57;6.18;;;;;;;;;;4862750;29;20053;-68
2021/08/12 02:47:41;;;;;;;8.25;5.88;;;;;;;;;;4863004;29;20512;-69
2021/08/12 02:50:09;;;;;;;8.27;6.25;;;;;;;;;;4879036;29;20080;-68
2021/08/12 02:52:36;;;;;;;7.75;5.95;;;;;;;;;;4862518;29;20493;-69
2021/08/12 02:55:02;;;;;;;6.68;5.75;;;;;;;;;;4862391;29;20521;-68
2021/08/12 02:57:29;;;;;;;9.27;6.15;;;;;;;;;;4877701;29;20099;-69
2021/08/12 02:59:56;;;;;;;7.82;6.13;;;;;;;;;;4878837;29;20137;-68
2021/08/12 03:02:22;;;;;;;7.70;6.25;;;;;;;;;;4878845;29;20057;-69
2021/08/12 03:04:49;;;;;;;8.35;5.80;;;;;;;;;;4862255;29;20428;-69
2021/08/12 03:07:18;;;;;;;7.80;5.78;;;;;;;;;;4877501;29;20475;-68
2021/08/12 03:09:48;;;;;;;11.43;6.47;;;;;;;;;;4862446;29;20099;-69
2021/08/12 03:12:18;;;;;;;11.88;6.40;;;;;;;;;;4877565;29;20053;-68
2021/08/12 03:14:46;;;;;;;10.10;6.50;;;;;;;;;;4877493;29;20081;-68
2021/08/12 03:17:12;;;;;;;7.72;6.30;;;;;;;;;;4877675;29;20049;-68
2021/08/12 03:19:40;;;;;;;7.10;5.75;;;;;;;;;;4862155;29;20308;-68
2021/08/12 03:22:11;;;;;;;8.45;5.47;;;;;;;;;;4878675;29;20417;-68
2021/08/12 03:24:41;;;;;;;9.43;6.38;;;;;;;;;;4878639;29;20057;-68
2021/08/12 03:27:11;;;;;;;8.20;6.15;;;;;;;;;;4878508;29;20092;-67
2021/08/12 03:29:42;;;;;;;8.00;6.72;;;;;;;;;;4878278;29;20057;-68
2021/08/12 03:32:09;;;;;;;7.90;6.70;;;;;;;;;;4878367;29;20564;-68
2021/08/12 03:34:36;;;;;;;12.00;6.10;;;;;;;;;;4878403;29;20080;-68
2021/08/12 03:37:03;;;;;;;11.57;7.38;;;;;;;;;;4878384;29;20099;-69
2021/08/12 03:39:31;;;;;;;9.75;6.22;;;;;;;;;;4878667;29;20133;-68
2021/08/12 03:41:58;;;;;;;6.82;6.07;;;;;;;;;;4878271;29;20057;-68
2021/08/12 03:44:25;;;;;;;6.93;6.22;;;;;;;;;;4878385;29;20124;-69
2021/08/12 03:47:03;;;;;;;10.13;6.07;;;;;;;;;;4878307;29;20053;-68
2021/08/12 03:49:29;;;;;;;7.95;5.97;;;;;;;;;;4878081;29;20092;-69
2021/08/12 03:51:56;;;;;;;7.45;6.20;;;;;;;;;;4878061;29;20509;-69
2021/08/12 03:54:22;;;;;;;8.88;6.13;;;;;;;;;;4877783;29;20480;-68
2021/08/12 03:56:49;;;;;;;8.77;6.50;;;;;;;;;;4878132;29;20078;-69
2021/08/12 03:59:16;;;;;;;8.57;6.90;;;;;;;;;;4878271;29;20091;-69
2021/08/12 04:01:42;;;;;;;8.90;7.35;;;;;;;;;;4878162;29;20091;-68
2021/08/12 04:04:09;;;;;;;9.73;7.32;;;;;;;;;;4877700;29;20071;-69
2021/08/12 04:06:36;;;;;;;12.35;6.82;;;;;;;;;;4878256;29;20148;-68
2021/08/12 04:09:02;;;;;;;8.15;6.28;;;;;;;;;;4877839;29;20099;-68
2021/08/12 04:11:29;;;;;;;9.82;6.72;;;;;;;;;;4878076;29;20095;-68
2021/08/12 04:13:56;;;;;;;9.30;6.88;;;;;;;;;;4877857;29;20098;-68
2021/08/12 04:16:22;;;;;;;7.95;6.35;;;;;;;;;;4878011;29;20081;-68
2021/08/12 04:18:49;;;;;;;10.88;7.68;;;;;;;;;;4877802;29;20405;-67
2021/08/12 04:21:15;;;;;;;9.68;6.82;;;;;;;;;;4877973;29;20577;-68
2021/08/12 04:23:42;;;;;;;8.70;6.50;;;;;;;;;;4877760;29;20100;-68
2021/08/12 04:26:08;;;;;;;8.13;6.47;;;;;;;;;;4876725;29;20053;-69
2021/08/12 04:28:46;;;;;;;12.10;7.22;;;;;;;;;;4878056;29;20534;-69
2021/08/12 04:31:12;;;;;;;9.07;6.78;;;;;;;;;;4877749;29;20057;-69
2021/08/12 04:33:39;;;;;;;8.63;6.63;;;;;;;;;;4876167;29;20667;-68
2021/08/12 04:36:06;;;;;;;9.30;6.55;;;;;;;;;;4877860;29;20081;-68
2021/08/12 04:38:32;;;;;;;8.63;7.75;;;;;;;;;;4877758;29;20092;-68
2021/08/12 04:40:59;;;;;;;8.13;6.80;;;;;;;;;;4877591;29;20100;-68
2021/08/12 04:43:25;;;;;;;12.25;6.80;;;;;;;;;;4877533;29;20128;-68
2021/08/12 04:45:52;;;;;;;9.13;6.95;;;;;;;;;;4877642;29;20528;-68
2021/08/12 04:48:19;;;;;;;9.88;7.32;;;;;;;;;;4877862;29;20180;-69
2021/08/12 04:50:45;;;;;;;7.72;6.40;;;;;;;;;;4877612;29;20108;-69
2021/08/12 04:53:12;;;;;;;8.57;6.40;;;;;;;;;;4877259;29;20132;-69
2021/08/12 04:55:38;;;;;;;10.50;6.95;;;;;;;;;;4877802;29;20081;-68
2021/08/12 04:58:05;;;;;;;7.85;5.78;;;;;;;;;;4877585;29;20053;-68
2021/08/12 05:00:33;;;;;;;7.95;6.70;;;;;;;;;;4877192;29;20513;-68
2021/08/12 05:03:00;;;;;;;7.00;5.95;;;;;;;;;;4880655;29;20057;-68
2021/08/12 05:05:28;;;;;;;10.35;6.65;;;;;;;;;;4880797;29;20053;-68
2021/08/12 05:07:55;;;;;;;7.55;6.32;;;;;;;;;;4881646;29;20148;-68
2021/08/12 05:10:21;;;;;;;6.82;5.80;;;;;;;;;;4880915;29;20075;-68
2021/08/12 05:12:48;;;;;;;10.32;8.25;;;;;;;;;;4880870;29;20484;-69
2021/08/12 05:15:14;;;;;;;10.77;7.20;;;;;;;;;;4878955;29;20088;-68
2021/08/12 05:17:41;;;;;;;11.80;6.45;;;;;;;;;;4880166;29;20053;-69
2021/08/12 05:20:08;;;;;;;9.02;6.32;;;;;;;;;;4880078;29;20057;-68
2021/08/12 05:22:35;;;;;;;8.38;7.10;;;;;;;;;;4880497;29;20096;-69
2021/08/12 05:25:03;;;;;;;11.43;7.38;;;;;;;;;;4880221;29;20053;-68
2021/08/12 05:27:30;;;;;;;9.02;6.72;;;;;;;;;;4880327;29;20053;-68
2021/08/12 05:29:57;;;;;;;7.68;6.78;;;;;;;;;;4880085;29;20049;-68
2021/08/12 05:32:26;;;;;;;10.93;6.55;;;;;;;;;;4880559;29;20075;-69
2021/08/12 05:34:53;;;;;;;9.90;7.15;;;;;;;;;;4878794;29;20088;-68
2021/08/12 05:37:19;;;;;;;11.18;7.93;;;;;;;;;;4880377;29;20053;-68
2021/08/12 05:39:46;;;;;;;10.23;6.97;;;;;;;;;;4880137;29;20053;-68
2021/08/12 05:42:13;;;;;;;12.40;8.15;;;;;;;;;;4880201;29;20093;-69
2021/08/12 05:44:39;;;;;;;12.23;7.72;;;;;;;;;;4879811;29;20564;-70
2021/08/12 05:47:06;;;;;;;11.60;7.25;;;;;;;;;;4880233;29;20135;-69
2021/08/12 05:49:32;;;;;;;11.38;6.95;;;;;;;;;;4879959;29;20057;-69
2021/08/12 05:51:59;;;;;;;9.10;7.28;;;;;;;;;;4879910;29;20085;-69
2021/08/12 05:54:25;;;;;;;8.38;6.85;;;;;;;;;;4879967;29;20048;-70
2021/08/12 05:56:52;;;;;;;9.13;6.50;;;;;;;;;;4879830;29;20064;-68
2021/08/12 05:59:19;;;;;;;11.73;7.20;;;;;;;;;;4879633;29;20080;-70
2021/08/12 06:01:45;;;;;;;9.07;6.50;;;;;;;;;;4879877;29;20154;-67
2021/08/12 06:04:12;;;;;;;9.57;6.75;;;;;;;;;;4879450;29;20057;-68
2021/08/12 06:06:39;;;;;;;8.60;6.45;;;;;;;;;;4879876;29;20081;-69
2021/08/12 06:09:06;;;;;;;7.53;6.72;;;;;;;;;;4879469;29;20084;-68
2021/08/12 06:11:33;;;;;;;7.03;5.80;;;;;;;;;;4879771;29;20053;-68
2021/08/12 06:14:00;;;;;;;6.65;5.88;;;;;;;;;;4879397;29;20084;-71
2021/08/12 06:16:26;;;;;;;10.25;6.28;;;;;;;;;;4877279;29;20067;-67
2021/08/12 06:18:53;;;;;;;7.70;6.57;;;;;;;;;;4877437;29;20471;-68
2021/08/12 06:21:20;;;;;;;11.15;7.07;;;;;;;;;;4877868;29;20081;-68
2021/08/12 06:23:47;;;;;;;9.98;6.47;;;;;;;;;;4876396;29;20095;-68
2021/08/12 06:26:13;;;;;;;10.15;6.78;;;;;;;;;;4877506;29;20509;-66
2021/08/12 06:28:40;;;;;;;8.98;7.40;;;;;;;;;;4877212;29;20143;-67
2021/08/12 06:31:06;;;;;;;10.98;7.80;;;;;;;;;;4877373;29;20512;-67
2021/08/12 06:33:33;;;;;;;10.60;7.15;;;;;;;;;;4877272;29;20077;-66
2021/08/12 06:35:59;;;;;;;7.43;6.18;;;;;;;;;;4877287;29;20424;-67
2021/08/12 06:38:26;;;;;;;8.95;6.45;;;;;;;;;;4877447;29;20092;-67
2021/08/12 06:40:53;;;;;;;10.15;7.15;;;;;;;;;;4876573;29;20056;-66
2021/08/12 06:43:19;;;;;;;9.88;6.90;;;;;;;;;;4876863;29;20128;-66
2021/08/12 06:45:46;;;;;;;8.93;6.22;;;;;;;;;;4877067;29;20145;-67
2021/08/12 06:48:13;;;;;;;9.88;7.68;;;;;;;;;;4877503;29;20080;-67
2021/08/12 06:50:41;;;;;;;11.00;7.35;;;;;;;;;;4877160;29;20478;-67
2021/08/12 06:53:07;;;;;;;12.93;7.15;;;;;;;;;;4877015;29;20463;-67
2021/08/12 06:55:35;;;;;;;8.43;6.78;;;;;;;;;;4877073;29;20091;-67
2021/08/12 06:58:02;;;;;;;10.05;6.72;;;;;;;;;;4877137;29;20509;-67
2021/08/12 07:00:28;;;;;;;7.40;5.72;;;;;;;;;;4877094;29;20140;-66
2021/08/12 07:02:55;;;;;;;8.95;6.82;;;;;;;;;;4876863;29;20584;-67
2021/08/12 07:05:23;;;;;;;9.68;6.07;;;;;;;;;;4877018;29;20108;-67
2021/08/12 07:07:50;;;;;;;9.88;6.07;;;;;;;;;;4876719;29;20144;-67
2021/08/12 07:10:17;;;;;;;7.20;5.63;;;;;;;;;;4876888;29;20052;-67
2021/08/12 07:12:44;;;;;;;7.05;5.47;;;;;;;;;;4877044;29;20151;-66
2021/08/12 07:15:12;;;;;;;9.57;6.00;;;;;;;;;;4877036;29;20076;-65
2021/08/12 07:17:38;;;;;;;9.07;5.88;;;;;;;;;;4878515;29;20053;-66
2021/08/12 07:20:05;;;;;;;8.20;5.55;;;;;;;;;;4878383;29;20095;-66
2021/08/12 07:22:32;;;;;;;10.40;5.50;;;;;;;;;;4878651;29;20080;-68
2021/08/12 07:25:00;;;;;;;8.07;5.55;;;;;;;;;;4877739;29;20088;-67
2021/08/12 07:27:26;;;;;;;8.55;6.05;;;;;;;;;;4878563;29;20120;-67
2021/08/12 07:29:53;;;;;;;6.78;5.40;;;;;;;;;;4877147;29;20144;-67
2021/08/12 07:32:19;;;;;;;7.38;5.88;;;;;;;;;;4878349;29;20088;-67
2021/08/12 07:34:46;;;;;;;9.20;6.13;;;;;;;;;;4876437;29;20504;-70
2021/08/12 07:37:12;;;;;;;7.13;5.18;;;;;;;;;;4877972;29;20505;-68
2021/08/12 07:39:39;;;;;;;6.70;4.97;;;;;;;;;;4877986;29;20512;-69
2021/08/12 07:42:06;;;;;;;11.30;7.00;;;;;;;;;;4878435;29;20096;-68
2021/08/12 07:44:32;;;;;;;8.43;4.80;;;;;;;;;;4878109;29;20137;-68
2021/08/12 07:46:59;;;;;;;6.75;5.28;;;;;;;;;;4877769;29;20485;-68
2021/08/12 07:49:25;;;;;;;7.72;5.80;;;;;;;;;;4877936;29;20053;-68
2021/08/12 07:51:52;;;;;;;6.20;5.10;;;;;;;;;;4876835;29;20115;-68
2021/08/12 07:54:18;;;;;;;7.90;5.00;;;;;;;;;;4878133;29;20076;-68
2021/08/12 07:56:45;;;;;;;8.65;5.20;;;;;;;;;;4877990;29;20131;-67
2021/08/12 07:59:11;;;;;;;7.97;5.28;;;;;;;;;;4877665;29;20434;-69
2021/08/12 08:01:38;;;;;;;12.90;5.82;;;;;;;;;;4876187;29;20477;-69
2021/08/12 08:04:05;;;;;;;8.07;5.43;;;;;;;;;;4876941;29;20060;-67
2021/08/12 08:06:31;;;;;;;6.90;5.10;;;;;;;;;;4877360;29;20485;-68
2021/08/12 08:08:58;;;;;;;7.32;5.45;;;;;;;;;;4877267;29;20120;-68
2021/08/12 08:11:24;;;;;;;9.73;5.63;;;;;;;;;;4878003;29;20535;-68
2021/08/12 08:13:51;;;;;;;7.07;4.85;;;;;;;;;;4877567;29;20057;-69
2021/08/12 08:16:21;;;;;;;7.40;5.63;;;;;;;;;;4877786;29;20080;-68
2021/08/12 08:18:48;;;;;;;8.70;5.18;;;;;;;;;;4877957;29;20052;-67
2021/08/12 08:21:15;;;;;;;7.53;4.38;;;;;;;;;;4877975;29;20092;-68
2021/08/12 08:23:42;;;;;;;6.90;6.03;;;;;;;;;;4877855;29;20139;-68
2021/08/12 08:26:08;;;;;;;5.93;4.45;;;;;;;;;;4877619;29;20088;-68
2021/08/12 08:28:35;;;;;;;6.45;4.72;;;;;;;;;;4878005;29;20488;-68
2021/08/12 08:31:01;;;;;;;4.95;4.32;;;;;;;;;;4877641;29;20092;-69
2021/08/12 08:33:28;;;;;;;6.57;4.90;;;;;;;;;;4877806;29;20064;-68
2021/08/12 08:35:55;;;;;;;5.68;5.10;;;;;;;;;;4877821;29;20049;-68
2021/08/12 08:38:21;;;;;;;6.57;5.07;;;;;;;;;;4881628;29;20076;-68
2021/08/12 08:40:48;;;;;;;5.47;4.40;;;;;;;;;;4881291;29;20052;-67
2021/08/12 08:43:16;;;;;;;6.53;4.40;;;;;;;;;;4880287;29;20084;-67
2021/08/12 08:45:42;;;;;;;6.32;4.85;;;;;;;;;;4864950;29;20132;-68
2021/08/12 08:48:10;;;;;;;6.68;5.35;;;;;;;;;;4879914;29;20108;-67
2021/08/12 08:50:37;;;;;;;7.65;5.13;;;;;;;;;;4864937;29;20057;-66
2021/08/12 08:53:04;;;;;;;6.65;4.35;;;;;;;;;;4879953;29;20100;-67
2021/08/12 08:55:30;;;;;;;6.10;5.22;;;;;;;;;;4881182;29;20088;-67
2021/08/12 08:57:58;;;;;;;7.97;4.78;;;;;;;;;;4881242;29;20052;-68
2021/08/12 09:00:25;;;;;;;5.45;4.40;;;;;;;;;;4880899;29;20505;-68
2021/08/12 09:02:52;;;;;;;7.47;5.63;;;;;;;;;;4880904;29;20061;-68
2021/08/12 09:05:20;;;;;;;13.18;5.15;;;;;;;;;;4881111;29;20056;-68
2021/08/12 09:07:47;;;;;;;8.45;5.15;;;;;;;;;;4881110;29;20057;-68
2021/08/12 09:10:16;;;;;;;5.25;4.35;;;;;;;;;;4880894;29;20470;-68
2021/08/12 09:12:44;;;;;;;5.55;4.35;;;;;;;;;;4880847;29;20100;-68
2021/08/12 09:15:13;;;;;;;5.00;4.35;;;;;;;;;;4880556;29;20080;-68
2021/08/12 09:17:40;;;;;;;9.25;4.88;;;;;;;;;;4880724;29;20592;-67
2021/08/12 09:20:18;;;;;;;6.97;4.40;;;;;;;;;;4880488;29;20101;-67
2021/08/12 09:22:50;;;;;;;8.38;4.28;;;;;;;;;;4880672;29;20466;-68
2021/08/12 09:25:42;;;;;;;7.63;4.10;;;;;;;;;;4880763;29;20083;-69
2021/08/12 09:28:12;;;;;;;6.82;4.70;;;;;;;;;;4879373;29;20099;-68
2021/08/12 09:30:39;;;;;;;5.97;4.32;;;;;;;;;;4880517;29;20431;-68
2021/08/12 09:33:06;;;;;;;5.57;4.40;;;;;;;;;;4880338;29;20049;-68
2021/08/12 09:35:33;;;;;;;5.03;4.10;;;;;;;;;;4875974;29;20137;-68
2021/08/12 09:38:08;;;;;;;7.18;4.30;;;;;;;;;;4861836;29;20089;-67
2021/08/12 09:40:35;;;;;;;5.07;4.32;;;;;;;;;;4861335;29;20053;-68
2021/08/12 09:43:04;;;;;;;7.68;4.15;;;;;;;;;;4861838;29;20088;-68
2021/08/12 09:45:32;;;;;;;6.05;4.05;;;;;;;;;;4861614;29;20084;-68
2021/08/12 09:48:18;;;;;;;5.43;4.18;;;;;;;;;;4861209;29;20093;-67
2021/08/12 09:50:58;;;;;;;6.50;4.38;;;;;;;;;;4861606;29;20073;-68
2021/08/12 09:53:24;;;;;;;5.47;4.57;;;;;;;;;;4861692;29;20081;-68
2021/08/12 09:55:52;;;;;;;5.57;4.10;;;;;;;;;;4879123;29;20137;-69
2021/08/12 09:58:19;;;;;;;6.60;4.18;;;;;;;;;;4878931;29;20053;-67
2021/08/12 10:00:47;;;;;;;7.55;4.22;;;;;;;;;;4880420;29;20076;-68
2021/08/12 10:03:32;;;;;;;8.73;4.30;;;;;;;;;;4880252;29;20060;-68
2021/08/12 10:06:01;;;;;;;7.85;4.40;;;;;;;;;;4879994;29;20128;-68
2021/08/12 10:08:35;;;;;;;5.88;4.20;;;;;;;;;;4880019;29;20087;-68
2021/08/12 10:11:20;;;;;;;5.35;3.88;;;;;;;;;;4879469;29;20055;-68
2021/08/12 10:13:49;;;;;;;3.88;3.45;;;;;;;;;;4879437;29;20053;-68
2021/08/12 10:16:16;;;;;;;5.90;4.25;;;;;;;;;;4879820;29;20128;-68
2021/08/12 10:18:45;;;;;;;6.63;4.25;;;;;;;;;;4879787;29;20049;-69
2021/08/12 10:21:13;;;;;;;6.32;3.70;;;;;;;;;;4879659;29;20049;-66
2021/08/12 10:23:40;;;;;;;5.93;4.18;;;;;;;;;;4879376;29;20081;-66
2021/08/12 10:26:07;;;;;;;4.75;4.22;;;;;;;;;;4877780;29;20397;-66
2021/08/12 10:28:37;;;;;;;4.78;4.20;;;;;;;;;;4879527;29;20527;-66
2021/08/12 10:31:04;;;;;;;7.47;5.35;;;;;;;;;;4879276;29;20080;-66
2021/08/12 10:33:32;;;;;;;4.50;3.85;;;;;;;;;;4879432;29;20222;-66
2021/08/12 10:35:59;;;;;;;7.10;4.43;;;;;;;;;;4878232;29;20470;-66
2021/08/12 10:38:26;;;;;;;4.25;3.78;;;;;;;;;;4878211;29;20109;-66
2021/08/12 10:40:53;;;;;;;6.13;4.72;;;;;;;;;;4879217;29;20116;-66
2021/08/12 10:43:24;;;;;;;6.07;4.35;;;;;;;;;;4877932;29;20095;-66
2021/08/12 10:45:56;;;;;;;4.22;3.80;;;;;;;;;;4863053;29;20147;-66
2021/08/12 10:48:24;;;;;;;7.72;4.68;;;;;;;;;;4879401;29;20053;-67
2021/08/12 10:51:10;;;;;;;6.25;4.32;;;;;;;;;;4879091;29;20053;-67
2021/08/12 10:53:42;;;;;;;5.65;4.10;;;;;;;;;;4879170;29;20136;-67
2021/08/12 10:56:09;;;;;;;4.27;3.70;;;;;;;;;;4878923;29;20531;-67
2021/08/12 10:58:37;;;;;;;4.75;4.30;;;;;;;;;;4878424;29;20076;-67
2021/08/12 11:01:07;;;;;;;5.38;3.95;;;;;;;;;;4878593;29;20092;-67
2021/08/12 11:03:33;;;;;;;4.72;4.13;;;;;;;;;;4877490;29;20049;-67
2021/08/12 11:06:08;;;;;;;8.52;5.00;;;;;;;;;;4878572;29;20523;-70
2021/08/12 11:09:00;;;;;;;7.28;4.75;;;;;;;;;;4878787;29;20063;-68
2021/08/12 11:11:26;;;;;;;4.68;4.00;;;;;;;;;;4854932;29;20057;-67
2021/08/12 11:13:59;;;;;;;5.20;3.90;;;;;;;;;;4873946;29;20053;-68
2021/08/12 11:16:27;;;;;;;8.35;4.45;;;;;;;;;;4873583;29;20587;-66
2021/08/12 11:18:58;;;;;;;4.60;4.20;;;;;;;;;;4867072;29;20053;-67
2021/08/12 11:21:38;;;;;;;7.38;4.40;;;;;;;;;;4866211;29;20112;-67
2021/08/12 11:24:32;;;;;;;7.05;5.10;;;;;;;;;;4864512;29;20057;-67
2021/08/12 11:27:01;;;;;;;6.55;5.25;;;;;;;;;;4867089;29;20092;-68
2021/08/12 11:29:28;;;;;;;7.00;4.53;;;;;;;;;;4872014;29;20049;-67
2021/08/12 11:32:14;;;;;;;7.20;5.00;;;;;;;;;;4868133;29;20052;-67
2021/08/12 11:34:52;;;;;;;5.57;4.60;;;;;;;;;;4867809;29;20098;-67
2021/08/12 11:37:20;;;;;;;6.75;4.32;;;;;;;;;;4867092;29;20084;-67
2021/08/12 11:39:50;;;;;;;5.03;4.53;;;;;;;;;;4866038;29;20149;-67
2021/08/12 11:42:30;;;;;;;7.32;4.45;;;;;;;;;;4868944;29;20465;-67
2021/08/12 11:44:59;;;;;;;5.80;4.22;;;;;;;;;;4865675;29;20421;-67
2021/08/12 11:47:26;;;;;;;8.20;5.63;;;;;;;;;;4867315;29;20513;-66
2021/08/12 11:49:56;;;;;;;5.43;4.88;;;;;;;;;;4866003;29;20099;-67
2021/08/12 11:52:24;;;;;;;5.15;4.25;;;;;;;;;;4868329;29;20453;-67
2021/08/12 11:54:58;;;;;;;6.18;4.18;;;;;;;;;;4865314;29;20079;-67
2021/08/12 11:57:47;;;;;;;5.93;4.95;;;;;;;;;;4866523;29;20136;-67
2021/08/12 12:00:19;;;;;;;7.35;4.47;;;;;;;;;;4866263;29;20045;-66
2021/08/12 12:02:48;;;;;;;5.72;4.22;;;;;;;;;;4864082;29;20145;-67
2021/08/12 12:05:15;;;;;;;5.57;4.45;;;;;;;;;;4868431;29;20141;-66
2021/08/12 12:07:54;;;;;;;5.55;4.78;;;;;;;;;;4881949;29;20577;-67
2021/08/12 12:10:29;;;;;;;6.85;4.75;;;;;;;;;;4869314;29;20057;-68
2021/08/12 12:13:08;;;;;;;4.80;4.30;;;;;;;;;;4886658;29;20090;-67
2021/08/12 12:15:37;;;;;;;5.53;4.78;;;;;;;;;;4872534;29;20053;-66
2021/08/12 12:18:04;;;;;;;5.70;4.50;;;;;;;;;;4871144;29;20076;-66
2021/08/12 12:20:31;;;;;;;5.13;4.22;;;;;;;;;;4886009;29;20076;-66
2021/08/12 12:23:05;;;;;;;5.72;5.22;;;;;;;;;;4871088;29;20083;-66
2021/08/12 12:25:34;;;;;;;5.90;4.10;;;;;;;;;;4874618;29;20045;-66
2021/08/12 12:28:01;;;;;;;4.95;4.32;;;;;;;;;;4870987;29;20054;-67
2021/08/12 12:30:29;;;;;;;5.68;4.63;;;;;;;;;;4875373;29;20527;-66
2021/08/12 12:33:06;;;;;;;5.60;4.75;;;;;;;;;;4870225;29;20092;-66
2021/08/12 12:35:36;;;;;;;6.40;4.20;;;;;;;;;;4873729;29;20102;-66
2021/08/12 12:38:05;;;;;;;4.90;4.45;;;;;;;;;;4871113;29;20057;-66
2021/08/12 12:40:34;;;;;;;4.80;4.38;;;;;;;;;;4854314;29;20061;-66
2021/08/12 12:43:01;;;;;;;6.25;4.40;;;;;;;;;;4868500;29;20056;-66
2021/08/12 12:45:28;;;;;;;6.30;4.38;;;;;;;;;;4870522;29;20063;-66
2021/08/12 12:48:05;;;;;;;4.32;3.92;;;;;;;;;;4877035;29;20049;-67
2021/08/12 12:50:51;;;;;;;6.03;3.75;;;;;;;;;;4877262;29;20053;-67
2021/08/12 12:53:31;;;;;;;5.38;4.03;;;;;;;;;;4870555;29;20594;-66
2021/08/12 12:55:58;;;;;;;5.30;4.22;;;;;;;;;;4869858;29;20081;-67
2021/08/12 12:58:35;;;;;;;4.65;4.05;;;;;;;;;;4874366;29;20137;-67
2021/08/12 13:01:06;;;;;;;4.15;3.75;;;;;;;;;;4870095;29;20050;-67
2021/08/12 13:03:36;;;;;;;5.00;4.50;;;;;;;;;;4870732;29;20140;-67
2021/08/12 13:06:08;;;;;;;4.25;3.85;;;;;;;;;;4873978;29;20124;-67
2021/08/12 13:08:45;;;;;;;4.50;4.15;;;;;;;;;;4871520;29;20088;-67
2021/08/12 13:11:17;;;;;;;4.40;4.00;;;;;;;;;;4871708;29;20060;-67
2021/08/12 13:13:48;;;;;;;6.22;4.28;;;;;;;;;;4873663;29;20084;-67
2021/08/12 13:16:16;;;;;;;4.78;3.83;;;;;;;;;;4869759;29;20751;-67
2021/08/12 13:18:54;;;;;;;4.97;4.45;;;;;;;;;;4880934;29;20120;-67
2021/08/12 13:21:24;;;;;;;4.65;3.92;;;;;;;;;;4883214;29;20140;-67
2021/08/12 13:23:52;;;;;;;6.43;4.07;;;;;;;;;;4880082;29;20053;-67
2021/08/12 13:26:32;;;;;;;5.38;4.28;;;;;;;;;;4870692;29;20584;-66
2021/08/12 13:29:03;;;;;;;4.83;4.33;;;;;;;;;;4870842;29;20081;-65
2021/08/12 13:32:06;;;;;;;5.90;4.27;;;;;;;;;;4871844;29;20049;-66
2021/08/12 13:34:34;;;;;;;5.13;3.92;;;;;;;;;;4881949;29;20088;-67
2021/08/12 13:37:01;;;;;;;5.18;4.03;;;;;;;;;;4867560;29;20094;-66
2021/08/12 13:39:27;;;;;;;6.05;4.22;;;;;;;;;;4867666;29;20137;-67
2021/08/12 13:42:05;;;;;;;4.78;4.35;;;;;;;;;;4867707;29;20057;-67
2021/08/12 13:44:33;;;;;;;4.13;3.67;;;;;;;;;;4871394;29;20561;-66
2021/08/12 13:47:01;;;;;;;4.03;3.63;;;;;;;;;;4870730;29;20049;-67
2021/08/12 13:49:29;;;;;;;5.80;4.05;;;;;;;;;;4870069;29;20089;-67
2021/08/12 13:51:57;;;;;;;5.72;3.95;;;;;;;;;;4871614;29;20536;-66
2021/08/12 13:54:24;;;;;;;4.43;4.03;;;;;;;;;;4870623;29;20091;-67
2021/08/12 13:56:51;;;;;;;4.97;4.00;;;;;;;;;;4867325;29;20136;-65
2021/08/12 13:59:18;;;;;;;5.75;4.78;;;;;;;;;;4867490;29;20045;-67
2021/08/12 14:01:46;;;;;;;4.15;3.75;;;;;;;;;;4865788;29;20081;-66
2021/08/12 14:04:13;;;;;;;4.40;4.00;;;;;;;;;;4867773;29;20100;-67
2021/08/12 14:06:39;;;;;;;5.40;4.25;;;;;;;;;;4865978;29;20564;-67
2021/08/12 14:09:06;;;;;;;7.20;4.25;;;;;;;;;;4868875;29;20132;-66
2021/08/12 14:11:33;;;;;;;6.70;4.38;;;;;;;;;;4865730;29;20104;-65
2021/08/12 14:14:01;;;;;;;6.90;4.40;;;;;;;;;;4868500;29;20132;-66
2021/08/12 14:16:28;;;;;;;6.07;4.30;;;;;;;;;;4870203;29;20091;-65
2021/08/12 14:18:54;;;;;;;5.50;4.32;;;;;;;;;;4867461;29;20072;-66
2021/08/12 14:21:22;;;;;;;4.90;4.40;;;;;;;;;;4868798;29;20128;-66
2021/08/12 14:23:48;;;;;;;5.57;4.25;;;;;;;;;;4867741;29;20517;-65
2021/08/12 14:26:15;;;;;;;5.28;4.00;;;;;;;;;;4866240;29;20121;-66
2021/08/12 14:28:42;;;;;;;4.13;3.72;;;;;;;;;;4874163;29;20092;-66
2021/08/12 14:31:10;;;;;;;6.13;3.88;;;;;;;;;;4867369;29;20142;-66
2021/08/12 14:33:40;;;;;;;10.32;5.90;;;;;;;;;;4865616;29;20048;-66
2021/08/12 14:36:08;;;;;;;5.00;4.28;;;;;;;;;;4868032;29;20151;-66
2021/08/12 14:38:37;;;;;;;4.90;4.43;;;;;;;;;;4864442;29;20132;-66
2021/08/12 14:41:05;;;;;;;4.25;3.85;;;;;;;;;;4868042;29;20077;-66
2021/08/12 14:43:33;;;;;;;5.63;4.85;;;;;;;;;;4868886;29;20109;-65
2021/08/12 14:46:00;;;;;;;8.55;5.18;;;;;;;;;;4870407;29;20752;-65
2021/08/12 14:48:27;;;;;;;10.23;5.35;;;;;;;;;;4872828;29;20088;-66
2021/08/12 14:50:55;;;;;;;6.43;4.40;;;;;;;;;;4879729;29;20132;-66
2021/08/12 14:53:21;;;;;;;5.07;4.25;;;;;;;;;;4865881;29;20084;-66
2021/08/12 14:55:49;;;;;;;6.47;4.00;;;;;;;;;;4866614;29;20335;-65
2021/08/12 14:58:16;;;;;;;4.35;3.95;;;;;;;;;;4866502;29;20210;-66
2021/08/12 15:00:43;;;;;;;5.60;5.05;;;;;;;;;;4866042;29;20140;-67
2021/08/12 15:03:09;;;;;;;6.10;4.50;;;;;;;;;;4880318;29;20104;-66
2021/08/12 15:05:36;;;;;;;5.07;4.30;;;;;;;;;;4865363;29;20081;-65
2021/08/12 15:08:03;;;;;;;4.75;4.35;;;;;;;;;;4866862;29;20569;-65
2021/08/12 15:10:29;;;;;;;4.70;4.00;;;;;;;;;;4862549;29;20136;-65
2021/08/12 15:12:58;;;;;;;6.80;4.40;;;;;;;;;;4871215;29;20585;-65
2021/08/12 15:15:25;;;;;;;10.57;8.95;;;;;;;;;;4867654;29;20517;-65
2021/08/12 15:17:52;;;;;;;11.60;10.40;;;;;;;;;;4869779;29;20498;-65
2021/08/12 15:20:19;;;;;;;8.85;7.95;;;;;;;;;;4865124;29;20057;-65
2021/08/12 15:22:45;;;;;;;7.75;6.25;;;;;;;;;;4870426;29;20309;-65
2021/08/12 15:25:13;;;;;;;5.10;4.60;;;;;;;;;;4868727;29;20532;-66
2021/08/12 15:27:39;;;;;;;5.97;5.38;;;;;;;;;;4866835;29;20098;-66
2021/08/12 15:30:07;;;;;;;9.35;5.20;;;;;;;;;;4865147;29;20089;-65
2021/08/12 15:32:34;;;;;;;8.45;4.95;;;;;;;;;;4867670;29;20052;-64
2021/08/12 15:35:05;;;;;;;11.07;6.93;;;;;;;;;;4865625;29;20572;-66
2021/08/12 15:37:32;;;;;;;6.45;5.65;;;;;;;;;;4866068;29;20057;-66
2021/08/12 15:39:59;;;;;;;6.88;4.78;;;;;;;;;;4867331;29;20064;-65
2021/08/12 15:42:25;;;;;;;6.38;4.40;;;;;;;;;;4869641;29;20144;-66
2021/08/12 15:44:52;;;;;;;10.82;9.70;;;;;;;;;;4869360;29;20117;-65
2021/08/12 15:47:19;;;;;;;11.18;8.93;;;;;;;;;;4869276;29;20084;-66